• Join FlightAware (Why Join?)
  • Login
  • US Flag 
10:41PM EDT


 

Airport Tracker/Info


-or-


 

Live Flight TrackerFlight Track Log ✈ ASQ5750 ✈ 01-May-2013 ✈ CYUL - KORD

Flight Track Log - Related Links

Times and Time Zones

All times are in EDT time to prevent confusion due to time zone crossing. See the ASQ5750 flight status page for this flight to view local times or setup timezone preferences in your user account.

Time Position Orientation Groundspeed Altitude Reporting Facility
EDT Latitude Longitude Course Direction KTS MPH feet Rate Location/Type
03:15PM 45.4500 -73.7667 254° West 130 150 600  Level Montreal Center
03:16PM 45.4500 -73.8500 270° West 190 219 2,400 2,100 Climbing Montreal Center
03:17PM 45.4500 -73.9333 270° West 240 276 4,900 2,520 Climbing Montreal Center
03:18PM 45.4500 -74.0333 270° West 270 311 7,500 2,580 Climbing Montreal Center
03:19PM 45.4833 -74.1500 292° West 280 322 10,100 2,280 Climbing Montreal Center
03:20PM 45.4937 -74.5149 254° West  Level FlightAware Approximate
03:20PM 45.4833 -74.2667 270° West 310 357 12,100  Level Montreal Center
03:21PM 45.4667 -74.3833 259° West 320 368 14,000 1,800 Climbing Montreal Center
03:22PM 45.4667 -74.5333 270° West 330 380 15,800 1,800 Climbing Montreal Center
03:23PM 45.4667 -74.6500 270° West 340 391 17,600 1,260 Climbing Montreal Center
03:24PM 45.4500 -74.8000 261° West 350 403 18,400 1,140 Climbing Montreal Center
03:25PM 45.4500 -74.9333 270° West 350 403 19,900 1,320 Climbing Montreal Center
03:26PM 45.4333 -75.0833 261° West 360 414 21,100 900 Climbing Montreal Center
03:27PM 45.4333 -75.2333 270° West 370 426 21,800 780 Climbing Montreal Center
03:28PM 45.4167 -75.4000 262° West 390 449 22,700 1,140 Climbing Montreal Center
03:29PM 45.4167 -75.5333 270° West 390 449 24,100 1,140 Climbing Montreal Center
03:30PM 45.4333 -75.7000 278° West 390 449 25,000 900 Climbing Montreal Center
03:31PM 45.4167 -75.8500 261° West 390 449 25,900 660 Climbing Montreal Center
03:32PM 45.4167 -76.0167 270° West 390 449 26,400 540 Climbing Montreal Center
03:33PM 45.4000 -76.1833 262° West 410 472 27,000 480 Climbing Montreal Center
03:34PM 45.3667 -76.3333 252° West 420 483 27,400 480 Climbing Montreal Center
03:35PM 45.3333 -76.5000 254° West 420 483 28,000 540 Climbing Montreal Center
03:36PM 45.2833 -76.6667 247° West 420 483 28,500 480 Climbing Montreal Center
03:37PM 45.2500 -76.8000 250° West 430 495 29,000 480 Climbing Montreal Center
03:38PM 45.2167 -76.9667 254° West 430 495 29,500 480 Climbing Montreal Center
03:39PM 45.1833 -77.1333 254° West 430 495 30,000 240 Climbing Montreal Center
03:40PM 45.1500 -77.3000 254° West 430 495 30,000  Level Montreal Center
03:41PM 45.1000 -77.4667 247° West 420 483 30,000  Level Montreal Center
03:42PM 45.0667 -77.6000 251° West 410 472 30,000  Level Montreal Center
03:43PM 45.0333 -77.7667 254° West 410 472 30,000  Level Montreal Center
03:44PM 44.9833 -77.9167 245° Southwest 410 472 30,000  Level Montreal Center
03:45PM 44.9500 -78.0667 253° West 410 472 30,000  Level Montreal Center
03:46PM 44.9167 -78.2333 254° West 410 472 30,000  Level Montreal Center
03:47PM 44.8833 -78.3833 253° West 420 483 30,000  Level Montreal Center
03:48PM 44.8500 -78.5500 254° West 420 483 30,000  Level Montreal Center
03:49PM 44.7833 -78.6833 235° Southwest 420 483 30,000  Level Montreal Center
03:50PM 44.7500 -78.8500 254° West 420 483 30,000  Level Montreal Center
03:51PM 44.7000 -78.9833 242° Southwest 410 472 30,000  Level Montreal Center
03:52PM 44.6500 -79.1167 242° Southwest 410 472 30,000  Level Montreal Center
03:53PM 44.6000 -79.2833 247° West 400 460 30,000  Level Montreal Center
03:54PM 44.5500 -79.4000 239° Southwest 400 460 30,000  Level Montreal Center
03:55PM 44.5000 -79.5333 242° Southwest 400 460 30,000  Level Montreal Center
03:56PM 44.4333 -79.6833 238° Southwest 400 460 30,000  Level Toronto Center
03:57PM 44.3833 -79.8167 242° Southwest 400 460 30,000  Level Toronto Center
03:58PM 44.3333 -79.9667 245° Southwest 400 460 30,000  Level Toronto Center
03:59PM 44.2833 -80.0833 239° Southwest 400 460 30,000  Level Toronto Center
04:00PM 44.2333 -80.2167 242° Southwest 400 460 30,000  Level Toronto Center
04:01PM 44.1833 -80.3500 242° Southwest 400 460 30,000  Level Toronto Center
04:02PM 44.1333 -80.5000 245° Southwest 400 460 30,000  Level Toronto Center
04:03PM 44.0833 -80.6333 242° Southwest 400 460 30,000  Level Toronto Center
04:04PM 44.0333 -80.7667 242° Southwest 400 460 30,000  Level Toronto Center
04:05PM 43.9667 -80.9000 235° Southwest 400 460 30,000  Level Toronto Center
04:06PM 43.9167 -81.0500 245° Southwest 400 460 30,000  Level Toronto Center
04:07PM 43.8667 -81.1833 243° Southwest 400 460 30,000  Level Toronto Center
04:08PM 43.8167 -81.3000 239° Southwest 400 460 30,000  Level Toronto Center
04:09PM 43.7667 -81.4333 243° Southwest 400 460 30,000  Level Toronto Center
04:10PM 43.7000 -81.5667 235° Southwest 400 460 30,000  Level Toronto Center
04:11PM 43.6667 -81.7000 251° West 400 460 30,000  Level Toronto Center
04:12PM 43.6000 -81.8500 238° Southwest 400 460 30,000  Level Toronto Center
04:13PM 43.5333 -81.9833 235° Southwest 400 460 30,000  Level Toronto Center
04:14PM 43.4833 -82.1167 243° Southwest 400 460 30,000  Level Toronto Center
04:14PM 43.4828 -82.1739 269° West 400 460 30,000  Level Cleveland Center
04:15PM 43.4269 -82.3039 239° Southwest 400 460 30,000  Level Cleveland Center
04:16PM 43.3728 -82.4339 240° Southwest 400 460 30,000  Level Cleveland Center
04:17PM 43.3333 -82.5000 231° Southwest 400 460 30,000  Level Toronto Center
04:18PM 43.2833 -82.6333 243° Southwest 400 460 30,000  Level Toronto Center
04:18PM 43.2642 -82.6956 247° West 400 460 30,000  Level Cleveland Center
04:19PM 43.2219 -82.8339 247° West 395 455 30,000  Level Cleveland Center
04:20PM 43.1836 -82.9747 250° West 395 455 30,000  Level Cleveland Center
04:21PM 43.1453 -83.1156 250° West 395 455 30,000  Level Cleveland Center
04:22PM 43.1067 -83.2533 249° West 395 455 30,000  Level Cleveland Center
04:23PM 43.0658 -83.3908 248° West 395 455 30,000  Level Cleveland Center
04:24PM 43.0289 -83.5342 251° West 389 448 30,000  Level Cleveland Center
04:25PM 42.9833 -83.6853 248° West 389 448 30,000  Level Cleveland Center
04:26PM 42.9569 -83.8144 254° West 389 448 30,000  Level Cleveland Center
04:27PM 42.9442 -83.9642 263° West 395 455 30,000  Level Cleveland Center
04:28PM 42.9286 -84.1306 263° West 405 466 30,000  Level Cleveland Center
04:29PM 42.9136 -84.2800 262° West 405 466 30,000  Level Cleveland Center
04:30PM 42.9047 -84.3814 263° West 400 460 30,000  Level Chicago Center
04:31PM 42.8900 -84.5308 262° West 399 459 30,000  Level Chicago Center
04:32PM 42.8736 -84.6811 262° West 400 460 30,000  Level Chicago Center
04:33PM 42.8547 -84.8603 262° West 399 459 30,000  Level Chicago Center
04:34PM 42.8394 -85.0106 262° West 401 461 30,000  Level Chicago Center
04:35PM 42.8233 -85.1603 262° West 400 460 30,000  Level Chicago Center
04:36PM 42.8072 -85.3100 262° West 400 460 30,000 -180 Level Chicago Center
04:38PM 42.7908 -85.4611 262° West 403 464 29,700 -660 Descending Chicago Center
04:39PM 42.7644 -85.6231 258° West 433 498 28,700 -1,080 Descending Chicago Center
04:40PM 42.7267 -85.8292 256° West 464 534 27,500 -1,860 Descending Chicago Center
04:41PM 42.6958 -86.0017 256° West 465 535 24,900 -2,160 Descending Chicago Center
04:42PM 42.6644 -86.1714 256° West 461 531 23,000 -960 Descending Chicago Center
04:43PM 42.6333 -86.3392 256° West 458 527 23,000 -1,020 Level Chicago Center
04:44PM 42.6011 -86.5042 255° West 453 521 21,000 -2,100 Descending Chicago Center
04:45PM 42.5731 -86.6589 256° West 429 494 18,700 -2,220 Descending Chicago Center
04:46PM 42.5356 -86.8236 253° West 411 473 16,500 -2,220 Descending Chicago Center
04:47PM 42.4950 -86.9728 250° West 392 451 14,200 -2,160 Descending Chicago Center
04:48PM 42.4581 -87.1022 249° West 373 429 12,100 -1,800 Descending Chicago Center
04:49PM 42.4292 -87.2147 251° West 316 364 10,500 -1,500 Descending Chicago Center
04:50PM 42.4025 -87.3061 248° West 269 310 9,100 -780 Descending Chicago Center
04:51PM 42.3756 -87.4058 250° West 264 304 8,900 -540 Descending Chicago Center
04:52PM 42.3511 -87.4967 250° West 261 300 8,000 -960 Descending Chicago Center
04:53PM 42.2989 -87.5603 222° Southwest 257 296 7,000 -720 Descending Chicago Center
04:54PM 42.2419 -87.6261 221° Southwest 224 258 6,500 -540 Descending Chicago Center
04:55PM 42.2047 -87.6661 219° Southwest 175 201 6,000 -600 Descending Chicago Center
04:56PM 42.1686 -87.7056 219° Southwest 169 194 5,300 -960 Descending Chicago Center
04:57PM 42.1347 -87.7456 221° Southwest 165 190 4,100 -1,140 Descending Chicago Center
04:58PM 42.1000 -87.7833 219° Southwest 169 194 3,300 -960 Descending Chicago TRACON
04:59PM 42.0667 -87.8167 217° Southwest 179 206 2,400 -900 Descending Chicago TRACON
05:00PM 42.0333 -87.8667 228° Southwest 158 182 1,500 -900 Descending Chicago TRACON
05:02PM 41.9817 -87.9067 217° Southwest  Level Estimated
05:09PM 41.9817 -87.9067 217° Southwest  Level Estimated